Time;durP1;ratioP1;P1;durP2;ratioP2;P2;SDS_P1;SDS_P2;PMS_P1;PMS_P2;Temp;Humidity;BMP_temperature;BMP_pressure;BME280_temperature;BME280_humidity;BME280_pressure;Samples;Min_cycle;Max_cycle;Signal;HPM_P1;HPM_P2
2023/10/12 00:01:58;;;;;;;21.00;10.70;;;;;;;0.23;100.00;101592.77;109224;1253;71949;-54
2023/10/12 00:05:17;;;;;;;22.00;9.40;;;;;;;0.19;100.00;101592.29;109236;1252;59002;-56
2023/10/12 00:10:19;;;;;;;22.60;10.90;;;;;;;0.28;100.00;101591.50;109242;1253;73472;-55
2023/10/12 00:12:49;;;;;;;21.50;10.20;;;;;;;0.24;100.00;101591.52;109275;1253;66847;-54
2023/10/12 00:17:55;;;;;;;19.00;10.90;;;;;;;0.21;100.00;101585.36;109361;1253;58966;-56
2023/10/12 00:22:51;;;;;;;19.80;10.30;;;;;;;0.16;100.00;101581.00;109156;1253;73457;-57
2023/10/12 00:25:20;;;;;;;21.00;10.10;;;;;;;0.11;100.00;101582.84;109053;1253;188792;-53
2023/10/12 00:27:47;;;;;;;21.90;11.00;;;;;;;0.06;100.00;101579.19;109185;1253;72732;-57
2023/10/12 00:30:16;;;;;;;17.90;9.00;;;;;;;0.02;100.00;101572.91;109090;1253;60942;-57
2023/10/12 00:32:44;;;;;;;18.90;9.40;;;;;;;-0.03;100.00;101571.27;109149;1253;59420;-55
2023/10/12 00:35:14;;;;;;;20.80;9.90;;;;;;;-0.08;100.00;101572.73;109244;1253;73460;-54
2023/10/12 00:37:41;;;;;;;19.70;10.70;;;;;;;-0.14;100.00;101569.98;109174;1253;67000;-57
2023/10/12 00:40:26;;;;;;;18.00;8.80;;;;;;;-0.20;100.00;101570.84;109211;1253;73173;-54
2023/10/12 00:42:56;;;;;;;17.60;9.80;;;;;;;-0.30;100.00;101575.41;109198;1253;59487;-55
2023/10/12 00:45:30;;;;;;;19.20;8.40;;;;;;;-0.31;100.00;101573.44;109167;1253;60159;-54
2023/10/12 00:48:04;;;;;;;19.20;8.70;;;;;;;-0.23;100.00;101577.16;109204;1253;74746;-55
2023/10/12 00:50:31;;;;;;;16.60;6.70;;;;;;;-0.19;100.00;101574.55;109369;1253;66953;-55
2023/10/12 00:53:15;;;;;;;13.60;6.80;;;;;;;-0.13;100.00;101570.64;109365;1253;72734;-54
2023/10/12 00:55:43;;;;;;;16.20;7.70;;;;;;;0.00;100.00;101572.83;109340;1253;59604;-60
2023/10/12 00:58:14;;;;;;;13.80;6.70;;;;;;;0.10;100.00;101577.10;109141;1253;58897;-54
2023/10/12 01:01:00;;;;;;;13.00;6.10;;;;;;;0.18;100.00;101575.08;109426;1253;74690;-55
2023/10/12 01:03:37;;;;;;;14.30;5.80;;;;;;;0.29;100.00;101576.75;109373;1254;67039;-56
2023/10/12 01:08:42;;;;;;;12.60;6.60;;;;;;;0.40;100.00;101576.09;109409;1252;58966;-53
2023/10/12 01:11:18;;;;;;;14.70;5.90;;;;;;;0.43;100.00;101576.83;109407;1252;58902;-55
2023/10/12 01:13:49;;;;;;;18.00;6.90;;;;;;;0.42;100.00;101574.29;109368;1253;74694;-53
2023/10/12 01:16:23;;;;;;;14.30;5.90;;;;;;;0.40;100.00;101576.13;109450;1253;67015;-56
2023/10/12 01:19:05;;;;;;;12.00;5.50;;;;;;;0.40;100.00;101578.33;109413;1252;72356;-53
2023/10/12 01:21:36;;;;;;;15.30;6.00;;;;;;;0.43;100.00;101577.83;109424;1253;59331;-54
2023/10/12 01:24:11;;;;;;;16.20;6.10;;;;;;;0.43;100.00;101573.02;109475;1251;59004;-53
2023/10/12 01:26:49;;;;;;;11.60;5.60;;;;;;;0.42;100.00;101569.02;109445;1251;73795;-55
2023/10/12 01:29:19;;;;;;;11.40;5.50;;;;;;;0.36;100.00;101570.67;109464;1251;66943;-53
2023/10/12 01:31:53;;;;;;;11.30;5.80;;;;;;;0.30;100.00;101564.17;109447;1251;72731;-56
2023/10/12 01:34:24;;;;;;;12.50;5.50;;;;;;;0.25;100.00;101560.86;109450;1251;60870;-54
2023/10/12 01:36:55;;;;;;;14.90;5.80;;;;;;;0.23;100.00;101564.41;109462;1251;60070;-52
2023/10/12 01:39:28;;;;;;;13.30;5.60;;;;;;;0.22;100.00;101565.45;109469;1251;73525;-57
2023/10/12 01:41:57;;;;;;;13.70;5.80;;;;;;;0.22;100.00;101569.73;109468;1251;66109;-54
2023/10/12 01:44:25;;;;;;;12.30;5.70;;;;;;;0.21;100.00;101565.17;109439;1251;72799;-59
2023/10/12 01:46:52;;;;;;;10.90;5.40;;;;;;;0.20;100.00;101562.88;109422;1254;58944;-57
2023/10/12 01:49:20;;;;;;;10.40;4.70;;;;;;;0.20;100.00;101559.40;109296;1253;58937;-53
2023/10/12 01:51:48;;;;;;;10.50;5.00;;;;;;;0.21;100.00;101554.61;109410;1253;72985;-55
2023/10/12 01:54:24;;;;;;;8.80;4.70;;;;;;;0.21;100.00;101549.98;109212;1253;66938;-54
2023/10/12 01:56:53;;;;;;;12.50;6.00;;;;;;;0.21;100.00;101550.80;109379;1253;72733;-55
2023/10/12 01:59:21;;;;;;;11.00;5.50;;;;;;;0.22;100.00;101552.48;109153;1253;59211;-54
2023/10/12 02:01:59;;;;;;;14.00;6.70;;;;;;;0.21;100.00;101555.08;109175;1253;59198;-56
2023/10/12 02:04:27;;;;;;;13.40;5.50;;;;;;;0.19;100.00;101547.34;109284;1251;73422;-56
2023/10/12 02:06:56;;;;;;;12.00;5.70;;;;;;;0.16;100.00;101548.71;109438;1251;66963;-56
2023/10/12 02:09:24;;;;;;;10.10;5.10;;;;;;;0.12;100.00;101545.70;109453;1251;72810;-52
2023/10/12 02:11:54;;;;;;;10.20;5.90;;;;;;;0.12;100.00;101547.56;109405;1251;58992;-57
2023/10/12 02:14:33;;;;;;;11.20;5.30;;;;;;;0.10;100.00;101548.16;109384;1251;60817;-54
2023/10/12 02:17:04;;;;;;;15.50;6.50;;;;;;;0.10;100.00;101548.36;109336;1251;74729;-53
2023/10/12 02:19:42;;;;;;;12.30;5.50;;;;;;;0.10;100.00;101543.05;109347;1251;65701;-55
2023/10/12 02:22:29;;;;;;;15.20;6.50;;;;;;;0.12;100.00;101540.58;109423;1254;71371;-53
2023/10/12 02:25:18;;;;;;;11.40;5.90;;;;;;;0.10;100.00;101534.00;109302;1254;59575;-55
2023/10/12 02:28:05;;;;;;;15.60;6.30;;;;;;;0.07;100.00;101532.30;109315;1254;60092;-59
2023/10/12 02:30:35;;;;;;;16.80;6.80;;;;;;;0.06;100.00;101530.61;109307;1254;74736;-56
2023/10/12 02:33:07;;;;;;;13.90;6.60;;;;;;;0.11;100.00;101523.66;109358;1254;66939;-57
2023/10/12 02:35:44;;;;;;;15.40;5.90;;;;;;;0.18;100.00;101518.68;109421;1253;71419;-56
2023/10/12 02:38:15;;;;;;;15.70;7.60;;;;;;;0.26;100.00;101526.78;109306;1253;59990;-55
2023/10/12 02:40:43;;;;;;;13.00;6.70;;;;;;;0.33;100.00;101529.63;109334;1254;60061;-54
2023/10/12 02:43:11;;;;;;;14.60;6.50;;;;;;;0.38;100.00;101531.94;109335;1254;73810;-56
2023/10/12 02:45:41;;;;;;;16.50;6.20;;;;;;;0.41;100.00;101530.73;109301;1254;65388;-57
2023/10/12 02:48:13;;;;;;;13.60;5.90;;;;;;;0.41;100.00;101540.66;109169;1254;72677;-54
2023/10/12 02:51:01;;;;;;;10.70;5.50;;;;;;;0.43;100.00;101540.07;109173;1254;59974;-56
2023/10/12 02:53:30;;;;;;;13.40;5.60;;;;;;;0.45;100.00;101544.38;109223;1253;60102;-57
2023/10/12 02:55:59;;;;;;;14.60;6.40;;;;;;;0.43;100.00;101536.77;109265;1254;74671;-54
2023/10/12 02:58:27;;;;;;;10.10;5.30;;;;;;;0.44;100.00;101537.27;109332;1254;67001;-53
2023/10/12 03:00:58;;;;;;;12.50;4.70;;;;;;;0.45;100.00;101538.70;109303;1254;72701;-54
2023/10/12 03:03:36;;;;;;;13.30;6.20;;;;;;;0.47;100.00;101538.59;109303;1253;60904;-53
2023/10/12 03:06:07;;;;;;;10.20;5.80;;;;;;;0.51;100.00;101542.69;109334;1254;58947;-53
2023/10/12 03:11:36;;;;;;;11.40;6.60;;;;;;;0.55;100.00;101542.27;109074;1254;65677;-53
2023/10/12 03:14:14;;;;;;;11.10;5.20;;;;;;;0.58;100.00;101545.54;109267;1253;72729;-54
2023/10/12 03:16:42;;;;;;;9.30;4.70;;;;;;;0.63;100.00;101543.87;109266;1253;59329;-53
2023/10/12 03:19:28;;;;;;;11.30;5.00;;;;;;;0.67;100.00;101542.27;109281;1254;59038;-53
2023/10/12 03:22:03;;;;;;;12.60;6.90;;;;;;;0.73;100.00;101534.20;109290;1257;74635;-54
2023/10/12 03:24:53;;;;;;;10.80;5.10;;;;;;;0.76;100.00;101537.52;109426;1253;66944;-54
2023/10/12 03:27:22;;;;;;;10.70;5.10;;;;;;;0.71;100.00;101540.29;109439;1254;74845;-55
2023/10/12 03:30:07;;;;;;;11.50;5.10;;;;;;;0.68;100.00;101537.79;109415;1253;59279;-54
2023/10/12 03:32:35;;;;;;;11.00;5.40;;;;;;;0.61;100.00;101534.39;109377;1252;60055;-54
2023/10/12 03:35:05;;;;;;;12.00;5.10;;;;;;;0.59;100.00;101535.39;109454;1253;74711;-54
2023/10/12 03:43:20;;;;;;;20.90;10.80;;;;;;;0.60;100.00;101533.09;109092;1254;59255;-54
2023/10/12 03:48:48;;;;;;;19.80;9.40;;;;;;;0.62;100.00;101520.83;109172;1253;74714;-54
2023/10/12 03:53:56;;;;;;;96.60;50.00;;;;;;;0.71;100.00;101513.14;109079;1254;71473;-56
2023/10/12 03:56:28;;;;;;;78.50;42.80;;;;;;;0.97;100.00;101516.43;109096;1254;59664;-54
2023/10/12 03:58:59;;;;;;;51.90;30.30;;;;;;;1.33;100.00;101517.02;109142;1254;60934;-53
2023/10/12 04:01:31;;;;;;;46.60;27.10;;;;;;;1.72;100.00;101518.02;109150;1255;73146;-56
2023/10/12 04:04:08;;;;;;;23.40;13.70;;;;;;;2.16;100.00;101518.88;109207;1254;67122;-53
2023/10/12 04:09:31;;;;;;;30.70;16.90;;;;;;;3.13;100.00;101511.52;109193;1256;59268;-53
2023/10/12 04:12:19;;;;;;;18.10;11.50;;;;;;;3.52;100.00;101509.52;109125;1254;58945;-53
2023/10/12 04:14:49;;;;;;;17.40;10.20;;;;;;;3.87;100.00;101510.02;109149;1254;73481;-53
2023/10/12 04:20:13;;;;;;;18.40;9.40;;;;;;;4.54;100.00;101514.06;109363;1253;72794;-53
2023/10/12 04:33:40;;;;;;;10.90;5.10;;;;;;;5.67;100.00;101497.72;109317;1254;72800;-56
2023/10/12 04:41:37;;;;;;;9.50;6.30;;;;;;;5.70;100.00;101494.92;108996;1253;74721;-54
2023/10/12 04:47:05;;;;;;;13.00;7.20;;;;;;;5.73;100.00;101492.80;109136;1254;72689;-53
2023/10/12 04:54:59;;;;;;;10.50;5.70;;;;;;;5.76;100.00;101492.91;109186;1254;74768;-54
2023/10/12 04:57:27;;;;;;;8.60;4.70;;;;;;;5.85;100.00;101488.74;109371;1254;67361;-55
2023/10/12 05:07:57;;;;;;;7.90;4.60;;;;;;;5.96;100.00;101492.71;109282;1253;75406;-53
2023/10/12 05:10:31;;;;;;;10.80;4.70;;;;;;;6.01;100.00;101492.98;109351;1254;65883;-54
2023/10/12 05:13:10;;;;;;;8.00;4.50;;;;;;;6.02;100.00;101491.52;109164;1254;72759;-53
2023/10/12 05:15:42;;;;;;;8.10;5.00;;;;;;;6.11;100.00;101499.66;109187;1254;59039;-53
2023/10/12 05:18:10;;;;;;;12.00;4.90;;;;;;;6.22;100.00;101496.95;109348;1253;59405;-54
2023/10/12 05:20:41;;;;;;;11.00;4.80;;;;;;;6.34;100.00;101498.95;109196;1253;73130;-54
2023/10/12 05:23:09;;;;;;;8.60;4.40;;;;;;;6.44;100.00;101500.85;109189;1254;65506;-56
2023/10/12 05:26:25;;;;;;;11.10;4.90;;;;;;;6.48;100.00;101499.39;109175;1254;72448;-53
2023/10/12 05:28:27;;;;;;;13.10;8.00;;;;;;;6.46;100.00;101509.34;109198;1254;58991;-53
2023/10/12 05:36:10;;;;;;;11.40;4.80;;;;;;;6.14;100.00;101511.84;109172;1253;65930;-54
2023/10/12 05:38:38;;;;;;;11.10;5.90;;;;;;;6.10;100.00;101520.58;109110;1254;71511;-56
2023/10/12 05:41:08;;;;;;;32.20;17.30;;;;;;;6.26;100.00;101515.45;109197;1254;58994;-54
2023/10/12 05:43:40;;;;;;;20.10;10.60;;;;;;;6.67;100.00;101511.61;109378;1254;59123;-54
2023/10/12 05:46:13;;;;;;;13.00;7.50;;;;;;;7.22;100.00;101514.60;109226;1254;74722;-54
2023/10/12 05:48:45;;;;;;;12.40;8.30;;;;;;;7.82;100.00;101511.35;109171;1254;66219;-54
2023/10/12 05:51:18;;;;;;;14.60;8.90;;;;;;;8.49;100.00;101506.56;109187;1253;72741;-53
2023/10/12 05:53:48;;;;;;;17.80;8.00;;;;;;;9.31;100.00;101498.71;109215;1253;60176;-55
2023/10/12 05:56:17;;;;;;;20.80;11.40;;;;;;;10.04;100.00;101491.25;109215;1253;60118;-56
2023/10/12 05:58:46;;;;;;;20.60;14.10;;;;;;;10.61;100.00;101492.61;109230;1253;74971;-54
2023/10/12 06:01:32;;;;;;;12.50;9.20;;;;;;;11.06;99.60;101490.95;109243;1253;67070;-54
2023/10/12 06:04:05;;;;;;;12.50;7.60;;;;;;;11.52;97.54;101485.77;109162;1255;71402;-54
2023/10/12 06:06:35;;;;;;;11.10;6.70;;;;;;;12.10;88.56;101478.54;109268;1254;60106;-53
2023/10/12 06:09:13;;;;;;;9.90;5.30;;;;;;;12.52;78.70;101476.45;109227;1254;59231;-54
2023/10/12 06:11:44;;;;;;;9.50;4.50;;;;;;;12.70;71.21;101475.17;109235;1253;74742;-56
2023/10/12 06:14:14;;;;;;;10.60;4.30;;;;;;;12.69;68.67;101476.52;109128;1254;67020;-53
2023/10/12 06:16:42;;;;;;;8.10;3.50;;;;;;;12.73;69.44;101472.09;109172;1254;72704;-53
2023/10/12 06:19:25;;;;;;;8.20;3.90;;;;;;;12.90;68.19;101465.98;109181;1256;59852;-54
2023/10/12 06:22:13;;;;;;;23.80;15.20;;;;;;;12.99;65.76;101460.17;109218;1254;59185;-55
2023/10/12 06:24:42;;;;;;;27.40;16.90;;;;;;;12.91;65.18;101462.36;109179;1254;73466;-54
2023/10/12 06:29:52;;;;;;;23.70;12.90;;;;;;;12.88;66.01;101455.70;109146;1254;71406;-55
2023/10/12 06:32:31;;;;;;;15.20;10.40;;;;;;;13.07;67.21;101457.00;109246;1255;60067;-54
2023/10/12 06:45:47;;;;;;;9.00;4.40;;;;;;;15.34;57.23;101449.11;109121;1254;59589;-55
2023/10/12 06:51:02;;;;;;;7.10;4.20;;;;;;;16.24;51.32;101449.71;109233;1253;73444;-54
2023/10/12 06:53:35;;;;;;;7.60;3.10;;;;;;;16.40;48.99;101443.88;109179;1254;66936;-55
2023/10/12 06:59:35;;;;;;;8.80;3.40;;;;;;;16.43;48.59;101440.41;109284;1254;59576;-55
2023/10/12 07:04:38;;;;;;;5.80;3.30;;;;;;;16.83;46.56;101432.13;109239;1254;72817;-55
2023/10/12 07:07:11;;;;;;;6.30;3.50;;;;;;;16.84;46.70;101431.41;109247;1254;65644;-56
2023/10/12 07:09:39;;;;;;;14.30;9.60;;;;;;;16.94;45.82;101426.83;109221;1254;72664;-55
2023/10/12 07:12:10;;;;;;;12.90;9.30;;;;;;;16.95;45.67;101428.94;109203;1254;61001;-53
2023/10/12 07:14:42;;;;;;;11.40;6.80;;;;;;;16.98;45.84;101425.55;109206;1253;59320;-54
2023/10/12 07:17:10;;;;;;;9.20;4.90;;;;;;;17.11;45.69;101422.31;109264;1254;73439;-55
2023/10/12 07:19:46;;;;;;;10.60;7.50;;;;;;;17.33;45.53;101418.00;109232;1254;65263;-54
2023/10/12 07:22:18;;;;;;;9.40;5.80;;;;;;;17.53;44.84;101414.48;109192;1254;71403;-54
2023/10/12 07:24:56;;;;;;;14.20;10.90;;;;;;;17.58;44.44;101409.02;109135;1254;60139;-53
2023/10/12 07:27:26;;;;;;;11.50;8.00;;;;;;;17.63;44.42;101413.30;109110;1254;60523;-54
2023/10/12 07:32:55;;;;;;;6.50;2.60;;;;;;;17.81;43.87;101402.77;108953;1254;66937;-56
2023/10/12 07:35:34;;;;;;;4.90;2.40;;;;;;;17.85;43.73;101405.31;109110;1254;72741;-54
2023/10/12 07:38:12;;;;;;;4.70;2.70;;;;;;;17.84;43.41;101403.21;109165;1254;60399;-54
2023/10/12 07:40:52;;;;;;;3.90;2.00;;;;;;;17.82;43.88;101400.23;109031;1255;59321;-54
2023/10/12 07:43:24;;;;;;;5.30;2.10;;;;;;;18.08;43.46;101399.98;109220;1253;73664;-54
2023/10/12 07:45:52;;;;;;;3.60;2.10;;;;;;;18.16;42.40;101394.14;109242;1254;66940;-55
2023/10/12 07:48:40;;;;;;;5.60;2.40;;;;;;;18.04;42.88;101397.89;109233;1254;73717;-55
2023/10/12 07:51:15;;;;;;;3.40;2.40;;;;;;;18.11;42.04;101398.21;109315;1253;60085;-53
2023/10/12 07:53:44;;;;;;;4.40;1.70;;;;;;;18.02;41.49;101393.79;109325;1253;58930;-55
2023/10/12 07:56:18;;;;;;;3.80;1.80;;;;;;;17.82;41.78;101395.59;109255;1254;73398;-56
2023/10/12 07:58:57;;;;;;;4.20;1.80;;;;;;;17.79;42.15;101393.02;109262;1254;67165;-53
2023/10/12 08:03:58;;;;;;;3.30;1.60;;;;;;;17.55;42.20;101390.67;109172;1253;59469;-53
2023/10/12 08:09:21;;;;;;;3.20;2.00;;;;;;;17.67;42.62;101387.39;109280;1254;74729;-56
2023/10/12 08:11:51;;;;;;;3.90;2.10;;;;;;;17.84;42.47;101383.12;109264;1254;67010;-53
2023/10/12 08:14:39;;;;;;;2.80;1.60;;;;;;;17.95;41.84;101379.59;109281;1253;71537;-54
2023/10/12 08:18:09;;;;;;;4.10;2.10;;;;;;;18.07;41.16;101374.95;109165;1253;60213;-53
2023/10/12 08:20:44;;;;;;;4.20;2.00;;;;;;;18.14;40.75;101374.62;109076;1254;59897;-53
2023/10/12 08:22:46;;;;;;;4.20;1.90;;;;;;;18.13;40.28;101375.11;109180;1254;74710;-54
2023/10/12 08:25:14;;;;;;;3.90;1.50;;;;;;;18.02;40.39;101372.52;109296;1253;65813;-54
2023/10/12 08:28:05;;;;;;;5.60;2.10;;;;;;;18.06;40.92;101377.31;109214;1254;72766;-53
2023/10/12 08:30:59;;;;;;;4.90;2.00;;;;;;;18.22;39.98;101371.40;109253;1254;59046;-54
2023/10/12 08:38:53;;;;;;;5.20;2.10;;;;;;;18.39;39.07;101368.07;109271;1253;66948;-54
2023/10/12 08:41:46;;;;;;;4.00;1.80;;;;;;;18.31;39.04;101366.88;109250;1254;72108;-56
2023/10/12 08:44:09;;;;;;;5.80;2.00;;;;;;;18.09;38.78;101362.04;109246;1253;59128;-54
2023/10/12 08:49:42;;;;;;;4.00;1.90;;;;;;;17.69;39.36;101349.23;109238;1254;74725;-53
2023/10/12 08:52:05;;;;;;;3.20;1.80;;;;;;;17.76;39.34;101352.92;109311;1253;65325;-55
2023/10/12 08:54:37;;;;;;;3.20;1.80;;;;;;;17.83;39.28;101347.38;109215;1254;72710;-56
2023/10/12 08:57:43;;;;;;;3.70;1.70;;;;;;;17.95;39.48;101342.38;109256;1253;59264;-53
2023/10/12 09:03:24;;;;;;;4.00;2.00;;;;;;;18.00;37.03;101329.22;109292;1254;72692;-53
2023/10/12 09:05:51;;;;;;;5.10;2.00;;;;;;;17.77;37.52;101314.30;109337;1253;65659;-53
2023/10/12 09:11:02;;;;;;;4.30;1.80;;;;;;;17.78;38.13;101311.84;109208;1253;60198;-55
2023/10/12 09:13:33;;;;;;;3.20;1.50;;;;;;;17.81;38.06;101299.83;109240;1253;61155;-54
2023/10/12 09:16:11;;;;;;;5.00;1.70;;;;;;;17.76;37.76;101287.48;109240;1253;76633;-53
2023/10/12 09:18:57;;;;;;;3.00;1.60;;;;;;;17.74;38.11;101287.39;109191;1253;68338;-54
2023/10/12 09:21:57;;;;;;;4.20;1.80;;;;;;;17.81;37.80;101274.34;109246;1253;74884;-56
2023/10/12 09:24:35;;;;;;;3.00;1.40;;;;;;;17.87;36.19;101269.98;109290;1253;62132;-53
2023/10/12 09:27:26;;;;;;;6.60;1.90;;;;;;;17.92;37.14;101256.02;109316;1253;61171;-56
2023/10/12 09:30:01;;;;;;;3.80;1.70;;;;;;;17.99;36.09;101251.33;109248;1253;75811;-55
2023/10/12 09:32:32;;;;;;;3.80;1.30;;;;;;;17.89;36.67;101243.53;109348;1253;69068;-55
2023/10/12 09:35:13;;;;;;;3.50;1.20;;;;;;;17.97;36.29;101237.86;109222;1254;71842;-58
2023/10/12 09:37:51;;;;;;;4.70;2.00;;;;;;;17.95;35.08;101236.37;109298;1253;59452;-55
2023/10/12 09:43:25;;;;;;;5.20;1.90;;;;;;;18.02;36.02;101223.52;108976;1253;74737;-56
2023/10/12 09:45:58;;;;;;;4.00;1.80;;;;;;;18.13;35.82;101219.49;109136;1253;67801;-53
2023/10/12 09:48:27;;;;;;;4.30;2.00;;;;;;;18.15;35.83;101212.14;109057;1254;73122;-55
2023/10/12 09:50:58;;;;;;;4.00;1.70;;;;;;;18.18;35.57;101205.59;109003;1254;60703;-53
2023/10/12 09:53:35;;;;;;;4.40;1.30;;;;;;;18.07;35.20;101202.80;109295;1254;61669;-54
2023/10/12 09:56:15;;;;;;;3.60;1.70;;;;;;;17.87;35.49;101196.05;109133;1254;78069;-55
2023/10/12 09:58:51;;;;;;;5.90;1.60;;;;;;;17.72;35.24;101182.80;109026;1254;66400;-54
2023/10/12 10:04:27;;;;;;;3.00;1.20;;;;;;;17.51;35.06;101177.58;109131;1254;60121;-53
2023/10/12 10:09:38;;;;;;;3.70;1.30;;;;;;;17.63;35.11;101159.41;109120;1254;74597;-53
2023/10/12 10:12:08;;;;;;;6.20;1.80;;;;;;;17.73;34.83;101158.23;109146;1254;68193;-54
2023/10/12 10:14:37;;;;;;;3.40;1.90;;;;;;;17.72;34.52;101152.13;109063;1254;72686;-53
2023/10/12 10:17:11;;;;;;;3.60;1.50;;;;;;;17.60;34.32;101155.13;109101;1254;59703;-54
2023/10/12 10:19:39;;;;;;;3.00;1.20;;;;;;;17.43;34.58;101147.75;109206;1253;60203;-54
2023/10/12 10:22:14;;;;;;;4.40;1.40;;;;;;;17.36;34.63;101140.59;109250;1254;74720;-53
2023/10/12 10:24:46;;;;;;;3.40;1.30;;;;;;;17.42;34.71;101134.53;109448;1253;67505;-56
2023/10/12 10:27:14;;;;;;;5.10;1.60;;;;;;;17.46;34.87;101127.67;109425;1253;72722;-54
2023/10/12 10:29:56;;;;;;;5.70;1.70;;;;;;;17.42;34.95;101122.20;109294;1253;59523;-54
2023/10/12 10:32:29;;;;;;;4.20;1.40;;;;;;;17.51;34.58;101116.63;109295;1253;61001;-56
2023/10/12 10:34:58;;;;;;;4.00;1.50;;;;;;;17.64;34.35;101117.64;109433;1253;74775;-54
2023/10/12 10:37:58;;;;;;;3.50;1.30;;;;;;;17.75;34.57;101115.67;109293;1253;66060;-54
2023/10/12 10:40:43;;;;;;;4.70;1.40;;;;;;;17.85;33.37;101106.91;109238;1254;73198;-53
2023/10/12 10:43:20;;;;;;;5.40;2.30;;;;;;;17.81;33.62;101109.61;109399;1253;58939;-54
2023/10/12 10:45:56;;;;;;;4.10;1.90;;;;;;;17.82;34.06;101108.42;109287;1254;61083;-54
2023/10/12 10:48:24;;;;;;;3.40;1.40;;;;;;;17.85;34.34;101104.23;109336;1253;75593;-53
2023/10/12 10:50:56;;;;;;;6.30;1.50;;;;;;;17.87;34.45;101101.41;109407;1253;67004;-54
2023/10/12 10:53:30;;;;;;;2.60;1.20;;;;;;;17.79;34.53;101098.78;109377;1253;72736;-56
2023/10/12 10:56:00;;;;;;;6.60;1.70;;;;;;;17.72;34.69;101092.38;109196;1254;59095;-55
2023/10/12 10:58:27;;;;;;;3.80;1.40;;;;;;;17.66;34.31;101088.23;109431;1252;61126;-55
2023/10/12 11:00:56;;;;;;;4.40;1.50;;;;;;;17.54;34.16;101082.62;109216;1253;77318;-55
2023/10/12 11:03:26;;;;;;;4.90;1.90;;;;;;;17.44;34.74;101088.59;109320;1254;68439;-56
2023/10/12 11:05:54;;;;;;;4.30;1.50;;;;;;;17.45;35.29;101081.13;109110;1256;74752;-54
2023/10/12 11:08:26;;;;;;;2.70;1.30;;;;;;;17.57;35.77;101078.60;109137;1254;62532;-54
2023/10/12 11:13:44;;;;;;;4.10;1.20;;;;;;;17.69;33.62;101063.66;109252;1254;77125;-54
2023/10/12 11:16:28;;;;;;;3.50;1.40;;;;;;;17.68;33.75;101057.74;109216;1254;70341;-54
2023/10/12 11:18:57;;;;;;;3.90;1.50;;;;;;;17.68;33.85;101057.05;109158;1254;73358;-56
2023/10/12 11:21:25;;;;;;;4.80;1.50;;;;;;;17.66;33.70;101053.14;109008;1256;62449;-54
2023/10/12 11:23:58;;;;;;;3.00;1.60;;;;;;;17.65;34.08;101047.23;109408;1253;62661;-54
2023/10/12 11:26:27;;;;;;;5.10;1.40;;;;;;;17.68;34.09;101048.62;109437;1253;76710;-54
2023/10/12 11:29:04;;;;;;;4.30;1.30;;;;;;;17.66;34.51;101048.31;109286;1253;70658;-55
2023/10/12 11:31:36;;;;;;;3.80;1.40;;;;;;;17.65;33.93;101045.07;109451;1253;75075;-54
2023/10/12 11:34:07;;;;;;;4.10;1.30;;;;;;;17.58;33.59;101032.89;109392;1253;60103;-55
2023/10/12 11:36:38;;;;;;;4.70;1.40;;;;;;;17.43;34.08;101035.35;109295;1253;61430;-55
2023/10/12 11:39:18;;;;;;;4.20;1.90;;;;;;;17.33;34.59;101031.05;109314;1253;74063;-55
2023/10/12 11:42:04;;;;;;;5.50;2.10;;;;;;;17.39;34.83;101027.10;109279;1253;67034;-54
2023/10/12 11:44:36;;;;;;;5.00;2.70;;;;;;;17.47;34.72;101025.03;109255;1253;72934;-54
2023/10/12 11:47:07;;;;;;;2.60;1.40;;;;;;;17.53;34.54;101021.52;109371;1253;59389;-55
2023/10/12 11:49:55;;;;;;;6.00;1.60;;;;;;;17.48;33.99;101015.86;109322;1253;59034;-55
2023/10/12 11:52:32;;;;;;;3.90;1.60;;;;;;;17.48;34.14;101014.49;109301;1253;76742;-55
2023/10/12 11:55:07;;;;;;;4.00;1.70;;;;;;;17.45;34.00;101009.27;109374;1253;66127;-54
2023/10/12 11:57:37;;;;;;;4.00;1.70;;;;;;;17.38;34.13;101003.83;109272;1253;76152;-56
2023/10/12 12:00:21;;;;;;;3.80;1.30;;;;;;;17.39;34.29;100999.28;109297;1253;62203;-53
2023/10/12 12:02:52;;;;;;;4.30;1.50;;;;;;;17.49;34.37;100993.02;109298;1253;62566;-53
2023/10/12 12:05:22;;;;;;;3.70;1.60;;;;;;;17.56;33.63;100990.69;109268;1253;75150;-56
2023/10/12 12:07:51;;;;;;;4.90;1.40;;;;;;;17.49;33.54;100984.70;109273;1253;68190;-54
2023/10/12 12:13:08;;;;;;;3.00;1.70;;;;;;;17.25;34.32;100973.67;109413;1252;58916;-54
2023/10/12 12:15:36;;;;;;;3.90;1.30;;;;;;;17.20;34.35;100966.36;109421;1253;60339;-54
2023/10/12 12:18:05;;;;;;;4.50;1.20;;;;;;;17.17;34.51;100963.39;109425;1253;72851;-54
2023/10/12 12:20:39;;;;;;;3.70;1.80;;;;;;;17.12;34.16;100959.46;109457;1253;66917;-54
2023/10/12 12:23:10;;;;;;;2.80;1.30;;;;;;;17.04;34.27;100957.39;109344;1253;72748;-54
2023/10/12 12:25:41;;;;;;;5.10;2.70;;;;;;;16.97;34.50;100955.34;109269;1253;177582;-54
2023/10/12 12:28:16;;;;;;;3.80;2.10;;;;;;;16.90;34.60;100949.13;109419;1253;60383;-54
2023/10/12 12:30:46;;;;;;;3.80;1.50;;;;;;;16.83;35.05;100949.18;109203;1256;74719;-55
2023/10/12 12:33:20;;;;;;;3.20;1.30;;;;;;;16.77;35.43;100949.28;109151;1254;67680;-53
2023/10/12 12:35:48;;;;;;;7.50;3.80;;;;;;;16.71;35.90;100946.88;109166;1254;71455;-53
2023/10/12 12:41:18;;;;;;;7.00;3.50;;;;;;;16.68;36.27;100952.03;109012;1254;61128;-54
2023/10/12 12:43:46;;;;;;;6.00;1.60;;;;;;;16.66;36.44;100948.11;109188;1254;74786;-53
2023/10/12 12:46:16;;;;;;;4.50;1.70;;;;;;;16.59;36.92;100944.84;109149;1259;68797;-55
2023/10/12 12:48:48;;;;;;;3.50;1.50;;;;;;;16.53;37.30;100935.61;109151;1254;72783;-56
2023/10/12 12:51:17;;;;;;;4.40;2.00;;;;;;;16.42;37.35;100933.54;109127;1254;60191;-54
2023/10/12 12:53:46;;;;;;;10.50;8.90;;;;;;;16.30;37.99;100929.73;109154;1254;61067;-55
2023/10/12 12:56:15;;;;;;;7.70;4.10;;;;;;;16.25;38.43;100921.97;109158;1254;73455;-54
2023/10/12 12:58:46;;;;;;;4.40;2.10;;;;;;;16.21;38.40;100918.05;109192;1254;68969;-55
2023/10/12 13:01:18;;;;;;;4.20;2.40;;;;;;;16.14;38.50;100920.27;109167;1254;72685;-54
2023/10/12 13:03:46;;;;;;;3.80;2.00;;;;;;;16.09;39.14;100915.39;109247;1254;60192;-54
2023/10/12 13:06:17;;;;;;;3.90;1.60;;;;;;;16.05;39.21;100909.36;109278;1253;62075;-54
2023/10/12 13:08:44;;;;;;;4.20;2.00;;;;;;;15.99;39.34;100903.82;109357;1253;77403;-54
2023/10/12 13:11:19;;;;;;;4.30;1.90;;;;;;;15.93;39.56;100898.55;109322;1254;69135;-53
2023/10/12 13:13:50;;;;;;;3.00;1.70;;;;;;;15.87;39.75;100891.86;109405;1253;73931;-54
2023/10/12 13:16:18;;;;;;;5.00;1.70;;;;;;;15.80;39.70;100887.96;109173;1253;59433;-55
2023/10/12 13:18:46;;;;;;;4.50;1.50;;;;;;;15.71;40.13;100883.71;109340;1252;62106;-56
2023/10/12 13:21:15;;;;;;;3.80;2.00;;;;;;;15.63;40.30;100884.69;109426;1253;77038;-55
2023/10/12 13:23:44;;;;;;;8.10;4.80;;;;;;;15.58;41.08;100879.30;109410;1253;68692;-55
2023/10/12 13:26:13;;;;;;;25.10;19.00;;;;;;;15.53;41.54;100878.00;109377;1253;71625;-53
2023/10/12 13:28:41;;;;;;;13.10;8.70;;;;;;;15.46;41.36;100868.25;109390;1253;59650;-56
2023/10/12 13:31:13;;;;;;;10.00;5.30;;;;;;;15.37;41.98;100870.50;109351;1252;62784;-55
2023/10/12 13:33:41;;;;;;;14.30;8.70;;;;;;;15.26;42.32;100871.37;109417;1253;73455;-54
2023/10/12 13:36:10;;;;;;;8.00;4.60;;;;;;;15.18;42.58;100867.50;109422;1253;68450;-55
2023/10/12 13:38:39;;;;;;;10.70;4.80;;;;;;;15.10;43.08;100868.00;109443;1253;74866;-56
2023/10/12 13:41:10;;;;;;;7.70;4.50;;;;;;;15.03;43.47;100869.08;109390;1253;58944;-53
2023/10/12 13:43:39;;;;;;;6.80;4.20;;;;;;;14.96;43.82;100864.52;109416;1253;60960;-55
2023/10/12 13:46:07;;;;;;;7.70;4.00;;;;;;;14.90;43.96;100866.06;109363;1253;74760;-54
2023/10/12 13:48:40;;;;;;;7.40;3.80;;;;;;;14.82;44.14;100862.86;109418;1252;66588;-53
2023/10/12 13:51:12;;;;;;;6.40;3.40;;;;;;;14.72;44.68;100860.02;109418;1252;71576;-54